Time;durP1;ratioP1;P1;durP2;ratioP2;P2;SDS_P1;SDS_P2;PMS_P1;PMS_P2;Temp;Humidity;BMP_temperature;BMP_pressure;BME280_temperature;BME280_humidity;BME280_pressure;Samples;Min_cycle;Max_cycle;Signal;HPM_P1;HPM_P2
2022/09/24 00:01:57;;;;;;;11.30;4.80;;;;;6.70;97687.00;;;;111012;1250;41151;-62
2022/09/24 00:04:27;;;;;;;8.70;4.20;;;;;6.80;97685.60;;;;111001;1249;41624;-62
2022/09/24 00:06:56;;;;;;;9.40;4.20;;;;;6.80;97680.80;;;;111073;1247;41807;-63
2022/09/24 00:09:25;;;;;;;9.00;3.60;;;;;6.80;97677.60;;;;111035;1249;42002;-62
2022/09/24 00:11:54;;;;;;;8.50;3.50;;;;;6.80;97680.20;;;;110984;1249;41466;-63
2022/09/24 00:14:23;;;;;;;8.50;3.60;;;;;6.76;97675.40;;;;111072;1247;41147;-63
2022/09/24 00:16:51;;;;;;;7.20;3.30;;;;;6.70;97676.00;;;;111109;1247;41596;-62
2022/09/24 00:19:19;;;;;;;8.00;3.30;;;;;6.70;97677.80;;;;111075;1248;41939;-63
2022/09/24 00:21:47;;;;;;;7.30;3.00;;;;;6.68;97679.00;;;;111053;1247;41232;-63
2022/09/24 00:27:04;;;;;;;8.90;4.00;;;;;6.60;97685.80;;;;111022;1247;41581;-63
2022/09/24 00:29:34;;;;;;;10.50;5.30;;;;;6.60;97680.40;;;;110961;1247;41797;-63
2022/09/24 00:32:03;;;;;;;10.60;4.90;;;;;6.70;97674.40;;;;111093;1247;41133;-63
2022/09/24 00:34:32;;;;;;;10.90;5.30;;;;;6.70;97669.40;;;;111103;1247;41355;-63
2022/09/24 00:37:01;;;;;;;9.50;4.10;;;;;6.70;97672.60;;;;110999;1247;41720;-63
2022/09/24 00:39:29;;;;;;;9.20;4.20;;;;;6.70;97668.40;;;;111064;1247;41192;-63
2022/09/24 00:41:57;;;;;;;11.30;4.20;;;;;6.70;97669.00;;;;111030;1247;41150;-63
2022/09/24 00:44:43;;;;;;;8.80;3.80;;;;;6.66;97669.80;;;;110797;1251;41368;-63
2022/09/24 00:47:22;;;;;;;7.70;3.70;;;;;6.60;97662.80;;;;110987;1249;41611;-63
2022/09/24 00:49:50;;;;;;;9.70;3.60;;;;;6.60;97659.00;;;;111119;1247;41149;-62
2022/09/24 00:52:19;;;;;;;8.00;3.40;;;;;6.58;97657.60;;;;110887;1249;41224;-64
2022/09/24 00:54:47;;;;;;;7.60;3.30;;;;;6.50;97662.20;;;;110814;1249;41256;-63
2022/09/24 00:57:16;;;;;;;7.70;3.40;;;;;6.50;97655.20;;;;110831;1251;41361;-63
2022/09/24 00:59:45;;;;;;;8.00;3.60;;;;;6.50;97653.20;;;;110699;1248;41134;-63
2022/09/24 01:02:14;;;;;;;7.30;3.10;;;;;6.42;97646.60;;;;110889;1248;42589;-63
2022/09/24 01:04:45;;;;;;;7.90;3.70;;;;;6.40;97646.60;;;;111079;1248;41165;-63
2022/09/24 01:07:15;;;;;;;8.00;3.30;;;;;6.40;97644.20;;;;111135;1247;41861;-61
2022/09/24 01:09:44;;;;;;;8.80;3.90;;;;;6.40;97642.80;;;;111123;1247;41161;-63
2022/09/24 01:12:32;;;;;;;7.30;3.40;;;;;6.40;97643.00;;;;111065;1249;41617;-63
2022/09/24 01:15:25;;;;;;;7.80;3.20;;;;;6.40;97645.20;;;;111074;1248;41154;-61
2022/09/24 01:18:02;;;;;;;7.50;3.20;;;;;6.40;97645.20;;;;110988;1248;41124;-61
2022/09/24 01:20:59;;;;;;;7.90;3.60;;;;;6.40;97638.40;;;;111039;1247;41949;-63
2022/09/24 01:23:33;;;;;;;10.80;5.00;;;;;6.40;97638.40;;;;110854;1248;41198;-61
2022/09/24 01:26:20;;;;;;;9.20;4.70;;;;;6.48;97636.60;;;;111049;1247;41135;-63
2022/09/24 01:29:04;;;;;;;8.70;3.80;;;;;6.44;97640.00;;;;110870;1250;41342;-62
2022/09/24 01:31:43;;;;;;;8.40;3.90;;;;;6.40;97641.60;;;;111131;1247;41991;-63
2022/09/24 01:34:14;;;;;;;7.30;3.00;;;;;6.40;97639.60;;;;110995;1248;41152;-63
2022/09/24 01:36:44;;;;;;;6.50;3.00;;;;;6.40;97643.80;;;;111040;1248;41210;-63
2022/09/24 01:39:14;;;;;;;6.60;3.10;;;;;6.40;97640.00;;;;110928;1249;41777;-63
2022/09/24 01:41:43;;;;;;;7.20;2.70;;;;;6.42;97641.40;;;;110975;1249;41746;-62
2022/09/24 01:44:12;;;;;;;8.40;3.80;;;;;6.50;97638.20;;;;110940;1249;41478;-62
2022/09/24 01:46:41;;;;;;;7.50;2.90;;;;;6.50;97641.40;;;;110944;1249;41151;-63
2022/09/24 01:49:10;;;;;;;9.90;4.90;;;;;6.50;97640.80;;;;110995;1249;41541;-63
2022/09/24 01:51:48;;;;;;;12.00;5.40;;;;;6.56;97648.80;;;;111087;1247;42205;-62
2022/09/24 01:54:16;;;;;;;14.00;5.00;;;;;6.60;97645.20;;;;110920;1249;41281;-63
2022/09/24 01:56:52;;;;;;;10.40;4.40;;;;;6.50;97642.40;;;;110992;1249;42355;-63
2022/09/24 01:59:24;;;;;;;8.70;3.90;;;;;6.50;97649.20;;;;110977;1249;41146;-62
2022/09/24 02:01:58;;;;;;;8.70;3.90;;;;;6.50;97648.20;;;;110983;1248;41630;-63
2022/09/24 02:04:27;;;;;;;9.40;3.30;;;;;6.50;97647.60;;;;111108;1247;41153;-64
2022/09/24 02:07:27;;;;;;;8.10;3.60;;;;;6.50;97648.80;;;;111067;1247;41131;-63
2022/09/24 02:09:56;;;;;;;8.10;3.50;;;;;6.50;97656.60;;;;110976;1248;41145;-63
2022/09/24 02:12:32;;;;;;;8.90;4.00;;;;;6.60;97654.80;;;;111035;1248;41497;-64
2022/09/24 02:15:09;;;;;;;9.30;4.30;;;;;6.60;97657.20;;;;111108;1248;41260;-64
2022/09/24 02:17:44;;;;;;;8.60;4.20;;;;;6.60;97651.60;;;;110910;1249;41636;-63
2022/09/24 02:20:15;;;;;;;9.00;4.40;;;;;6.60;97657.80;;;;110862;1249;42165;-62
2022/09/24 02:22:45;;;;;;;10.90;4.40;;;;;6.60;97656.80;;;;111088;1247;41138;-63
2022/09/24 02:25:19;;;;;;;11.50;5.20;;;;;6.60;97658.80;;;;111122;1249;42296;-64
2022/09/24 02:27:47;;;;;;;10.70;4.90;;;;;6.60;97655.00;;;;111058;1249;41210;-63
2022/09/24 02:30:16;;;;;;;8.40;3.50;;;;;6.60;97661.20;;;;110871;1249;41353;-62
2022/09/24 02:32:45;;;;;;;11.10;4.50;;;;;6.60;97659.20;;;;111099;1247;41142;-63
2022/09/24 02:35:14;;;;;;;8.30;3.50;;;;;6.70;97652.00;;;;111164;1249;41259;-64
2022/09/24 02:37:43;;;;;;;8.60;3.70;;;;;6.70;97652.20;;;;110806;1250;41210;-63
2022/09/24 02:40:13;;;;;;;8.70;4.10;;;;;6.70;97644.60;;;;111128;1247;42167;-63
2022/09/24 02:42:42;;;;;;;9.50;4.20;;;;;6.76;97648.40;;;;111032;1248;41137;-63
2022/09/24 02:45:11;;;;;;;8.70;3.70;;;;;6.80;97640.60;;;;111055;1247;41232;-63
2022/09/24 02:47:39;;;;;;;7.50;3.20;;;;;6.80;97638.00;;;;111051;1248;42293;-63
2022/09/24 02:50:08;;;;;;;9.80;3.60;;;;;6.80;97633.60;;;;110985;1248;41252;-63
2022/09/24 02:52:37;;;;;;;8.40;3.30;;;;;6.78;97636.40;;;;111033;1248;41154;-63
2022/09/24 02:55:05;;;;;;;6.90;3.10;;;;;6.70;97635.80;;;;111065;1248;41262;-63
2022/09/24 02:57:34;;;;;;;7.60;3.40;;;;;6.70;97635.20;;;;111139;1248;42371;-62
2022/09/24 03:00:04;;;;;;;7.40;3.40;;;;;6.68;97640.00;;;;110778;1250;41904;-62
2022/09/24 03:02:32;;;;;;;;;;;;;6.60;97641.20;;;;111091;1246;41178;-62
2022/09/24 03:05:00;;;;;;;7.30;2.90;;;;;6.58;97642.60;;;;111124;1249;41373;-63
2022/09/24 03:07:29;;;;;;;6.90;2.90;;;;;6.50;97643.60;;;;111061;1248;41153;-62
2022/09/24 03:09:59;;;;;;;7.90;3.70;;;;;6.50;97652.60;;;;111106;1247;41149;-63
2022/09/24 03:12:29;;;;;;;7.80;3.50;;;;;6.48;97652.60;;;;111035;1247;41498;-62
2022/09/24 03:14:57;;;;;;;7.90;3.50;;;;;6.40;97645.40;;;;111153;1247;41200;-63
2022/09/24 03:17:27;;;;;;;7.50;3.30;;;;;6.40;97649.20;;;;111109;1247;41258;-63
2022/09/24 03:19:55;;;;;;;10.50;5.10;;;;;6.42;97651.20;;;;111093;1247;41127;-64
2022/09/24 03:22:23;;;;;;;9.60;4.40;;;;;6.40;97650.00;;;;111121;1247;41143;-63
2022/09/24 03:24:53;;;;;;;10.30;4.50;;;;;6.40;97656.60;;;;110958;1247;41156;-63
2022/09/24 03:27:21;;;;;;;9.60;4.30;;;;;6.30;97656.60;;;;111120;1247;41145;-63
2022/09/24 03:32:35;;;;;;;11.30;5.50;;;;;6.20;97655.60;;;;111109;1247;41189;-62
2022/09/24 03:35:04;;;;;;;11.70;5.30;;;;;6.20;97664.80;;;;111167;1247;41149;-62
2022/09/24 03:37:35;;;;;;;10.40;4.80;;;;;6.10;97672.20;;;;111163;1247;41201;-62
2022/09/24 03:40:05;;;;;;;12.30;6.80;;;;;6.10;97670.00;;;;111144;1247;42466;-62
2022/09/24 03:42:33;;;;;;;12.30;6.60;;;;;6.10;97668.80;;;;111118;1248;41157;-62
2022/09/24 03:45:00;;;;;;;13.90;7.00;;;;;6.10;97669.40;;;;111054;1247;41182;-61
2022/09/24 03:47:30;;;;;;;17.60;8.50;;;;;6.10;97670.40;;;;111112;1247;41252;-62
2022/09/24 03:49:58;;;;;;;19.70;9.20;;;;;6.10;97663.40;;;;111104;1248;41586;-62
2022/09/24 03:52:26;;;;;;;17.00;7.50;;;;;6.10;97666.60;;;;111111;1247;41129;-62
2022/09/24 03:54:54;;;;;;;15.20;6.70;;;;;6.10;97669.60;;;;111171;1248;41254;-62
2022/09/24 03:57:22;;;;;;;17.60;7.60;;;;;6.10;97674.60;;;;111111;1248;41939;-62
2022/09/24 03:59:53;;;;;;;15.40;6.50;;;;;6.10;97673.60;;;;111073;1248;41258;-62
2022/09/24 04:02:21;;;;;;;14.50;6.20;;;;;6.18;97671.80;;;;111127;1247;42583;-62
2022/09/24 04:04:49;;;;;;;13.30;5.50;;;;;6.20;97672.80;;;;111222;1247;42159;-62
2022/09/24 04:07:17;;;;;;;11.40;5.30;;;;;6.20;97677.00;;;;111049;1247;41266;-62
2022/09/24 04:09:46;;;;;;;10.30;4.90;;;;;6.28;97683.80;;;;111150;1247;41359;-62
2022/09/24 04:12:13;;;;;;;11.90;5.30;;;;;6.30;97681.40;;;;111103;1247;41708;-63
2022/09/24 04:14:42;;;;;;;11.40;5.00;;;;;6.30;97683.80;;;;110980;1250;41967;-63
2022/09/24 04:17:13;;;;;;;10.30;4.60;;;;;6.34;97687.80;;;;110756;1249;41141;-63
2022/09/24 04:19:42;;;;;;;8.30;3.40;;;;;6.40;97691.80;;;;111112;1247;41709;-63
2022/09/24 04:22:10;;;;;;;8.40;3.70;;;;;6.44;97688.20;;;;111129;1247;41245;-62
2022/09/24 04:24:38;;;;;;;7.40;3.40;;;;;6.50;97690.20;;;;111047;1247;41725;-63
2022/09/24 04:27:05;;;;;;;8.20;3.60;;;;;6.50;97689.20;;;;110992;1248;41205;-62
2022/09/24 04:29:33;;;;;;;7.80;3.20;;;;;6.54;97689.80;;;;110761;1249;41272;-62
2022/09/24 04:32:02;;;;;;;9.40;4.30;;;;;6.60;97692.20;;;;110681;1250;41136;-62
2022/09/24 04:34:29;;;;;;;9.90;4.80;;;;;6.68;97683.60;;;;110823;1250;41265;-62
2022/09/24 04:36:59;;;;;;;10.70;4.60;;;;;6.80;97685.00;;;;110826;1249;41159;-62
2022/09/24 04:39:26;;;;;;;12.90;6.40;;;;;6.98;97663.60;;;;110807;1247;41156;-62
2022/09/24 04:41:54;;;;;;;13.80;6.10;;;;;7.20;97687.40;;;;110606;1250;41147;-62
2022/09/24 04:44:22;;;;;;;11.30;5.60;;;;;7.20;97688.80;;;;111046;1248;42387;-62
2022/09/24 04:46:50;;;;;;;10.20;5.00;;;;;7.20;97687.80;;;;111086;1247;41807;-62
2022/09/24 04:49:17;;;;;;;11.50;5.20;;;;;7.20;97692.00;;;;110990;1247;41958;-62
2022/09/24 04:51:44;;;;;;;14.90;7.10;;;;;7.20;97692.00;;;;111128;1247;41825;-62
2022/09/24 04:54:12;;;;;;;15.10;7.00;;;;;7.20;97694.80;;;;111173;1247;41182;-62
2022/09/24 04:56:39;;;;;;;14.00;6.70;;;;;7.04;97700.20;;;;111204;1248;41154;-62
2022/09/24 04:59:06;;;;;;;14.40;6.90;;;;;6.90;97699.40;;;;111223;1247;41141;-63
2022/09/24 05:01:33;;;;;;;13.20;6.60;;;;;6.94;97700.40;;;;111324;1247;41597;-63
2022/09/24 05:04:01;;;;;;;12.20;6.00;;;;;7.00;97701.60;;;;111144;1247;41269;-62
2022/09/24 05:06:28;;;;;;;12.80;6.10;;;;;7.02;97700.80;;;;111189;1247;41141;-62
2022/09/24 05:08:56;;;;;;;17.70;8.10;;;;;7.10;97702.40;;;;111015;1247;41142;-62
2022/09/24 05:11:24;;;;;;;17.80;10.00;;;;;7.10;97700.60;;;;110835;1249;41021;-62
2022/09/24 05:13:52;;;;;;;19.20;10.70;;;;;7.20;97707.60;;;;111153;1247;41320;-62
2022/09/24 05:16:19;;;;;;;20.40;11.20;;;;;7.20;97707.00;;;;111036;1247;41153;-63
2022/09/24 05:18:46;;;;;;;20.30;10.70;;;;;7.30;97695.40;;;;110899;1249;41418;-63
2022/09/24 05:21:14;;;;;;;20.50;10.90;;;;;7.50;97699.20;;;;111018;1248;41176;-62
2022/09/24 05:23:41;;;;;;;21.70;12.10;;;;;7.78;97712.80;;;;110804;1250;41273;-62
2022/09/24 05:28:54;;;;;;;16.30;8.50;;;;;8.00;97711.60;;;;110815;1250;41733;-62
2022/09/24 05:31:21;;;;;;;16.40;8.40;;;;;8.10;97719.40;;;;111019;1250;41381;-63
2022/09/24 05:33:49;;;;;;;12.80;6.90;;;;;8.20;97719.20;;;;111160;1248;41483;-62
2022/09/24 05:36:18;;;;;;;12.30;6.20;;;;;8.30;97724.00;;;;110823;1249;42282;-63
2022/09/24 05:38:45;;;;;;;10.60;4.80;;;;;8.40;97725.60;;;;110899;1248;232328;-62
2022/09/24 05:41:13;;;;;;;12.00;5.80;;;;;8.50;97725.80;;;;111058;1248;41782;-63
2022/09/24 05:43:40;;;;;;;11.00;5.40;;;;;8.60;97726.00;;;;111213;1248;41172;-63
2022/09/24 05:46:07;;;;;;;10.10;5.00;;;;;8.60;97730.40;;;;111217;1247;41373;-63
2022/09/24 05:48:35;;;;;;;10.50;4.80;;;;;8.50;97732.40;;;;110923;1249;41254;-63
2022/09/24 05:51:04;;;;;;;11.20;5.50;;;;;8.52;97730.80;;;;111133;1248;41149;-62
2022/09/24 05:53:31;;;;;;;11.50;5.10;;;;;8.56;97731.00;;;;111195;1247;41166;-62
2022/09/24 05:55:59;;;;;;;9.70;4.70;;;;;8.66;97723.60;;;;111202;1249;41265;-62
2022/09/24 05:58:26;;;;;;;9.70;4.80;;;;;9.00;97720.60;;;;111140;1247;41190;-62
2022/09/24 06:00:53;;;;;;;10.20;4.70;;;;;9.42;97720.00;;;;111158;1247;41920;-61
2022/09/24 06:03:20;;;;;;;10.60;4.70;;;;;10.30;97708.40;;;;111265;1246;42364;-62
2022/09/24 06:05:49;;;;;;;12.00;6.70;;;;;10.86;97724.00;;;;111260;1247;41256;-61
2022/09/24 06:08:18;;;;;;;9.80;4.70;;;;;10.90;97725.60;;;;111233;1246;41176;-61
2022/09/24 06:10:46;;;;;;;12.90;4.80;;;;;11.14;97708.20;;;;111468;1247;41276;-64
2022/09/24 06:13:18;;;;;;;9.10;4.30;;;;;11.80;97724.80;;;;111736;1246;41139;-62
2022/09/24 06:15:45;;;;;;;8.90;4.60;;;;;12.42;97701.80;;;;111347;1247;41307;-63
2022/09/24 06:18:14;;;;;;;7.30;3.30;;;;;13.18;97723.40;;;;111587;1247;41153;-63
2022/09/24 06:20:46;;;;;;;10.00;4.20;;;;;13.42;97698.20;;;;111493;1247;41709;-63
2022/09/24 06:23:22;;;;;;;9.00;4.30;;;;;13.68;97690.00;;;;111545;1247;40726;-61
2022/09/24 06:25:54;;;;;;;9.50;4.00;;;;;14.40;97695.40;;;;111277;1247;42382;-62
2022/09/24 06:28:27;;;;;;;8.20;3.60;;;;;15.36;97689.00;;;;111216;1247;41201;-62
2022/09/24 06:30:55;;;;;;;7.10;3.10;;;;;16.02;97692.40;;;;111140;1248;41610;-62
2022/09/24 06:33:23;;;;;;;7.40;3.00;;;;;16.72;97694.60;;;;110791;1249;41244;-62
2022/09/24 06:35:59;;;;;;;7.80;3.20;;;;;17.42;97685.20;;;;111107;1247;41527;-63
2022/09/24 06:38:27;;;;;;;8.30;3.90;;;;;18.00;97685.20;;;;111244;1247;41261;-61
2022/09/24 06:41:02;;;;;;;8.30;3.80;;;;;17.90;97701.20;;;;111148;1247;41605;-61
2022/09/24 06:43:31;;;;;;;6.90;3.00;;;;;17.82;97698.60;;;;111182;1247;41352;-62
2022/09/24 06:45:59;;;;;;;8.90;3.30;;;;;18.22;97699.00;;;;111143;1247;41154;-61
2022/09/24 06:48:30;;;;;;;6.20;2.70;;;;;18.46;97708.60;;;;111155;1248;41261;-61
2022/09/24 06:50:57;;;;;;;6.70;2.80;;;;;18.64;97709.40;;;;111064;1249;41137;-62
2022/09/24 06:53:25;;;;;;;7.00;2.90;;;;;18.92;97705.40;;;;111168;1249;41307;-62
2022/09/24 06:56:02;;;;;;;5.60;2.50;;;;;18.52;97717.00;;;;111377;1248;40901;-62
2022/09/24 06:58:29;;;;;;;7.50;2.80;;;;;18.68;97719.20;;;;110948;1250;42404;-62
2022/09/24 07:01:00;;;;;;;6.00;2.50;;;;;18.90;97718.40;;;;110785;1249;41167;-62
2022/09/24 07:03:29;;;;;;;8.50;3.20;;;;;19.30;97728.40;;;;111004;1249;41146;-62
2022/09/24 07:06:00;;;;;;;5.60;2.50;;;;;19.70;97727.20;;;;111098;1248;41612;-62
2022/09/24 07:08:28;;;;;;;6.50;2.70;;;;;20.00;97733.20;;;;110990;1250;41253;-62
2022/09/24 07:10:55;;;;;;;6.40;2.60;;;;;20.10;97734.40;;;;111045;1248;40856;-62
2022/09/24 07:13:23;;;;;;;6.40;2.60;;;;;19.56;97740.60;;;;110962;1247;41136;-61
2022/09/24 07:15:51;;;;;;;6.50;2.80;;;;;19.00;97741.60;;;;111053;1247;41135;-62
2022/09/24 07:18:28;;;;;;;6.50;2.60;;;;;18.22;97750.60;;;;111216;1247;41518;-62
2022/09/24 07:20:57;;;;;;;5.60;2.40;;;;;17.32;97755.80;;;;111042;1246;41235;-61
2022/09/24 07:23:25;;;;;;;8.60;3.20;;;;;17.20;97755.60;;;;111008;1248;41152;-62
2022/09/24 07:25:55;;;;;;;6.40;2.30;;;;;16.84;97760.00;;;;111203;1247;41149;-61
2022/09/24 07:28:22;;;;;;;7.20;2.90;;;;;16.80;97758.00;;;;111155;1247;41136;-62
2022/09/24 07:30:56;;;;;;;6.10;2.30;;;;;16.90;97763.20;;;;111051;1247;41156;-62
2022/09/24 07:33:23;;;;;;;7.70;3.30;;;;;17.10;97769.20;;;;111276;1249;41205;-62
2022/09/24 07:35:51;;;;;;;7.10;3.00;;;;;17.20;97767.00;;;;111162;1247;41174;-62
2022/09/24 07:38:18;;;;;;;9.10;3.50;;;;;16.62;97765.60;;;;111264;1247;41606;-62
2022/09/24 07:40:45;;;;;;;5.60;2.40;;;;;16.72;97760.80;;;;111469;1247;41135;-63
2022/09/24 07:43:13;;;;;;;7.80;3.30;;;;;17.06;97774.80;;;;111084;1249;41152;-62
2022/09/24 07:45:41;;;;;;;7.30;3.10;;;;;17.70;97773.20;;;;110879;1249;41267;-62
2022/09/24 07:48:09;;;;;;;8.70;3.90;;;;;17.70;97774.20;;;;110930;1249;41169;-61
2022/09/24 07:50:39;;;;;;;7.60;3.00;;;;;17.80;97771.80;;;;111188;1248;41154;-62
2022/09/24 07:53:10;;;;;;;7.80;3.20;;;;;17.90;97771.80;;;;111201;1249;41142;-62
2022/09/24 07:55:39;;;;;;;9.00;3.30;;;;;18.02;97765.20;;;;110709;1250;41177;-61
2022/09/24 07:58:13;;;;;;;9.30;3.80;;;;;18.20;97759.40;;;;111109;1249;40741;-61
2022/09/24 08:00:41;;;;;;;9.20;4.10;;;;;17.80;97757.40;;;;111123;1247;41599;-62
2022/09/24 08:03:08;;;;;;;8.60;3.90;;;;;17.66;97750.40;;;;111352;1247;42473;-61
2022/09/24 08:05:43;;;;;;;9.80;4.30;;;;;17.90;97750.20;;;;111447;1247;41151;-61
2022/09/24 08:08:11;;;;;;;8.50;4.10;;;;;18.20;97747.60;;;;111436;1248;41142;-61
2022/09/24 08:10:38;;;;;;;7.70;3.50;;;;;18.00;97756.80;;;;111024;1249;41267;-62
2022/09/24 08:13:06;;;;;;;7.60;3.40;;;;;17.90;97765.00;;;;111109;1247;41152;-62
2022/09/24 08:15:33;;;;;;;10.80;4.00;;;;;18.14;97763.00;;;;110824;1249;42414;-62
2022/09/24 08:18:04;;;;;;;8.10;4.00;;;;;19.16;97759.40;;;;110980;1249;41639;-62
2022/09/24 08:20:32;;;;;;;11.80;3.90;;;;;19.94;97745.60;;;;111066;1247;41165;-62
2022/09/24 08:23:01;;;;;;;7.60;3.40;;;;;20.24;97738.60;;;;111069;1248;41264;-62
2022/09/24 08:25:30;;;;;;;9.60;3.80;;;;;20.46;97736.60;;;;111111;1247;41151;-62
2022/09/24 08:28:05;;;;;;;11.10;3.60;;;;;21.20;97738.60;;;;111235;1248;42392;-62
2022/09/24 08:30:34;;;;;;;7.20;3.10;;;;;21.62;97735.00;;;;111219;1248;41153;-61
2022/09/24 08:33:06;;;;;;;9.50;3.20;;;;;21.68;97755.00;;;;110568;1249;41645;-61
2022/09/24 08:35:34;;;;;;;7.90;3.30;;;;;21.18;97742.80;;;;111031;1247;41735;-61
2022/09/24 08:38:02;;;;;;;7.00;3.20;;;;;21.34;97742.60;;;;111047;1247;42475;-61
2022/09/24 08:40:35;;;;;;;9.40;3.90;;;;;21.78;97740.40;;;;111026;1246;41823;-62
2022/09/24 08:43:08;;;;;;;8.60;3.60;;;;;21.68;97738.60;;;;111032;1247;41731;-62
2022/09/24 08:48:35;;;;;;;8.70;3.70;;;;;20.90;97744.00;;;;111018;1248;41152;-62
2022/09/24 08:51:06;;;;;;;10.80;3.70;;;;;21.26;97739.60;;;;111031;1247;41882;-62
2022/09/24 08:53:48;;;;;;;6.30;2.90;;;;;21.22;97750.00;;;;111052;1248;41152;-62
2022/09/24 08:56:23;;;;;;;8.00;3.10;;;;;21.36;97743.20;;;;111019;1247;42542;-62
2022/09/24 08:59:00;;;;;;;7.70;3.30;;;;;21.44;97745.40;;;;111096;1247;41133;-62
2022/09/24 09:01:27;;;;;;;6.80;2.80;;;;;21.92;97741.20;;;;111102;1247;41264;-62
2022/09/24 09:04:19;;;;;;;7.30;2.90;;;;;21.72;97740.80;;;;111000;1249;42187;-62
2022/09/24 09:07:07;;;;;;;6.40;2.80;;;;;22.10;97738.00;;;;111035;1249;41178;-62
2022/09/24 09:09:41;;;;;;;7.00;2.50;;;;;22.04;97735.40;;;;111031;1248;41150;-61
2022/09/24 09:12:14;;;;;;;6.00;2.60;;;;;22.56;97733.80;;;;111027;1249;41187;-61
2022/09/24 09:14:58;;;;;;;6.50;2.50;;;;;23.10;97728.20;;;;111034;1249;41147;-62
2022/09/24 09:17:28;;;;;;;5.90;2.50;;;;;22.92;97726.80;;;;111019;1249;41154;-62
2022/09/24 09:19:57;;;;;;;6.90;2.80;;;;;22.28;97746.80;;;;110660;1250;41152;-62
2022/09/24 09:22:28;;;;;;;5.90;2.40;;;;;20.36;97755.80;;;;111084;1249;42263;-63
2022/09/24 09:24:59;;;;;;;7.70;2.60;;;;;19.62;97761.40;;;;110940;1248;41162;-63
2022/09/24 09:27:31;;;;;;;6.20;2.60;;;;;18.92;97760.40;;;;110965;1250;41295;-62
2022/09/24 09:30:03;;;;;;;6.30;2.60;;;;;18.88;97752.60;;;;110995;1248;42753;-60
2022/09/24 09:33:09;;;;;;;6.40;2.70;;;;;19.20;97755.00;;;;110992;1249;41426;-60
2022/09/24 09:36:11;;;;;;;6.40;2.90;;;;;19.40;97745.00;;;;110590;1250;41261;-60
2022/09/24 09:39:12;;;;;;;4.80;2.00;;;;;19.70;97747.40;;;;110410;1251;41647;-60
2022/09/24 09:41:47;;;;;;;7.50;3.10;;;;;19.94;97743.40;;;;111087;1247;41182;-61
2022/09/24 09:44:21;;;;;;;5.60;2.40;;;;;20.06;97743.60;;;;110959;1248;41830;-61
2022/09/24 09:47:05;;;;;;;8.50;3.30;;;;;20.04;97747.00;;;;111052;1247;41258;-62
2022/09/24 09:49:35;;;;;;;6.60;2.80;;;;;19.94;97756.40;;;;111073;1248;41592;-62
2022/09/24 09:52:10;;;;;;;6.90;2.40;;;;;19.28;97767.20;;;;110927;1247;41136;-62
2022/09/24 09:54:40;;;;;;;5.90;2.40;;;;;18.54;97768.40;;;;110987;1249;41260;-61
2022/09/24 09:57:15;;;;;;;7.40;3.00;;;;;18.06;97765.40;;;;111069;1249;41139;-61
2022/09/24 09:59:46;;;;;;;6.10;2.60;;;;;17.66;97770.00;;;;111031;1246;41265;-61
2022/09/24 10:02:33;;;;;;;6.70;2.70;;;;;17.20;97769.60;;;;110997;1250;41264;-61
2022/09/24 10:05:05;;;;;;;5.50;2.30;;;;;17.10;97760.80;;;;111174;1247;42508;-60
2022/09/24 10:07:43;;;;;;;7.10;2.90;;;;;17.20;97765.40;;;;111092;1247;41499;-62
2022/09/24 10:10:24;;;;;;;7.80;2.80;;;;;17.20;97764.80;;;;111169;1248;41293;-61
2022/09/24 10:13:05;;;;;;;7.20;2.40;;;;;16.92;97768.60;;;;111021;1247;41152;-62
2022/09/24 10:15:38;;;;;;;6.80;2.90;;;;;16.70;97765.00;;;;111022;1248;41152;-61
2022/09/24 10:18:12;;;;;;;7.00;3.00;;;;;16.60;97765.80;;;;111091;1247;41600;-61
2022/09/24 10:20:47;;;;;;;6.50;2.80;;;;;16.70;97770.00;;;;111067;1247;41152;-61
2022/09/24 10:23:24;;;;;;;6.50;2.70;;;;;16.80;97771.40;;;;111082;1247;41553;-61
2022/09/24 10:25:59;;;;;;;5.20;2.40;;;;;17.04;97766.60;;;;111066;1247;41118;-62
2022/09/24 10:31:17;;;;;;;7.40;3.20;;;;;18.08;97757.40;;;;110935;1248;41392;-62
2022/09/24 10:33:46;;;;;;;7.60;3.40;;;;;18.30;97757.60;;;;110856;1247;41178;-62
2022/09/24 10:36:19;;;;;;;6.80;2.80;;;;;17.94;97754.60;;;;111110;1248;41864;-62
2022/09/24 10:38:47;;;;;;;7.70;3.50;;;;;17.94;97752.00;;;;111100;1247;41156;-62
2022/09/24 10:41:16;;;;;;;10.00;3.60;;;;;18.08;97746.00;;;;111058;1247;41265;-62
2022/09/24 10:43:50;;;;;;;7.10;3.10;;;;;18.10;97743.80;;;;111106;1247;41369;-61
2022/09/24 10:46:49;;;;;;;10.40;4.50;;;;;18.34;97746.80;;;;110757;1249;41127;-61
2022/09/24 10:49:31;;;;;;;7.00;3.20;;;;;18.88;97742.40;;;;111073;1249;41252;-61
2022/09/24 10:52:31;;;;;;;7.90;3.40;;;;;19.10;97736.00;;;;111089;1247;43365;-63
2022/09/24 10:55:18;;;;;;;8.30;2.90;;;;;18.96;97736.20;;;;111043;1249;41260;-62
2022/09/24 10:58:01;;;;;;;7.80;3.30;;;;;19.00;97739.00;;;;111009;1248;41172;-61
2022/09/24 11:00:31;;;;;;;6.80;2.70;;;;;19.10;97737.00;;;;111130;1247;41638;-61
2022/09/24 11:03:00;;;;;;;6.90;2.90;;;;;19.20;97738.20;;;;111245;1247;42433;-60
2022/09/24 11:05:51;;;;;;;9.40;3.70;;;;;19.20;97744.60;;;;110841;1249;41258;-61
2022/09/24 11:08:37;;;;;;;6.90;3.00;;;;;19.10;97740.60;;;;111139;1247;41153;-62
2022/09/24 11:11:23;;;;;;;6.90;2.90;;;;;18.70;97745.20;;;;111155;1248;41270;-62
2022/09/24 11:14:27;;;;;;;7.10;2.90;;;;;18.52;97747.20;;;;111124;1247;41260;-62
2022/09/24 11:17:06;;;;;;;7.80;3.20;;;;;18.30;97748.80;;;;111070;1249;41144;-62
2022/09/24 11:20:00;;;;;;;5.90;2.30;;;;;18.30;97750.80;;;;111118;1247;41298;-62
2022/09/24 11:22:29;;;;;;;7.90;3.20;;;;;18.46;97749.60;;;;111133;1247;42457;-62
2022/09/24 11:25:47;;;;;;;5.30;2.30;;;;;18.88;97741.40;;;;111087;1248;41165;-61
2022/09/24 11:28:36;;;;;;;7.70;3.30;;;;;19.34;97738.20;;;;110384;1255;41390;-62
2022/09/24 11:31:21;;;;;;;7.00;2.80;;;;;19.90;97723.40;;;;110424;1253;41320;-61
2022/09/24 11:34:03;;;;;;;6.40;2.70;;;;;20.14;97721.00;;;;110888;1249;41168;-62
2022/09/24 11:37:06;;;;;;;7.50;2.70;;;;;20.50;97715.80;;;;111031;1249;41151;-62
2022/09/24 11:39:38;;;;;;;5.30;2.30;;;;;20.20;97715.40;;;;111053;1247;41153;-62
2022/09/24 11:42:36;;;;;;;6.60;2.40;;;;;20.46;97712.20;;;;110965;1249;41168;-62
2022/09/24 11:45:26;;;;;;;5.70;2.20;;;;;20.90;97709.00;;;;111169;1247;42044;-62
2022/09/24 11:48:27;;;;;;;5.10;2.10;;;;;21.34;97704.40;;;;111276;1247;41142;-62
2022/09/24 11:51:06;;;;;;;7.20;2.30;;;;;21.82;97697.20;;;;111349;1247;41174;-62
2022/09/24 11:53:44;;;;;;;6.00;2.30;;;;;21.88;97698.60;;;;111167;1247;42120;-62
2022/09/24 11:56:12;;;;;;;5.70;2.30;;;;;22.00;97706.40;;;;111145;1248;41503;-62
2022/09/24 11:58:53;;;;;;;6.20;2.60;;;;;21.30;97712.60;;;;111438;1247;41307;-62
2022/09/24 12:01:33;;;;;;;9.70;2.50;;;;;20.62;97712.60;;;;111269;1249;41248;-62
2022/09/24 12:04:03;;;;;;;5.60;2.20;;;;;20.02;97711.60;;;;111207;1248;41577;-62
2022/09/24 12:06:41;;;;;;;;;;;;;19.50;97715.80;;;;110920;1249;41156;-62
2022/09/24 12:09:17;;;;;;;4.50;2.20;;;;;20.04;97704.00;;;;111151;1249;41127;-62
2022/09/24 12:12:17;;;;;;;7.80;2.10;;;;;21.00;97707.60;;;;110868;1249;41233;-62
2022/09/24 12:14:50;;;;;;;4.60;2.20;;;;;21.74;97694.00;;;;110557;1250;41159;-62
2022/09/24 12:17:26;;;;;;;6.10;2.10;;;;;22.56;97694.60;;;;111102;1249;41900;-64
2022/09/24 12:20:13;;;;;;;8.30;2.60;;;;;22.70;97694.00;;;;110992;1250;42259;-63
2022/09/24 12:22:41;;;;;;;5.80;2.40;;;;;22.30;97698.20;;;;110893;1249;41286;-63
2022/09/24 12:25:11;;;;;;;6.70;2.60;;;;;21.88;97701.20;;;;110849;1248;41170;-63
2022/09/24 12:27:38;;;;;;;6.10;2.40;;;;;21.60;97705.80;;;;110772;1250;41951;-63
2022/09/24 12:33:19;;;;;;;6.10;2.30;;;;;21.58;97706.60;;;;111268;1247;41249;-64
2022/09/24 12:36:03;;;;;;;6.80;2.40;;;;;21.30;97704.60;;;;111257;1247;41196;-62
2022/09/24 12:38:52;;;;;;;6.60;2.10;;;;;21.10;97702.00;;;;111236;1247;41338;-62
2022/09/24 12:41:42;;;;;;;6.10;2.60;;;;;21.00;97697.40;;;;111117;1248;41245;-62
2022/09/24 12:44:09;;;;;;;6.20;2.30;;;;;20.90;97701.00;;;;111297;1247;41712;-63
2022/09/24 12:46:45;;;;;;;6.40;2.50;;;;;20.90;97693.80;;;;111083;1249;41608;-62
2022/09/24 12:49:24;;;;;;;6.40;2.50;;;;;20.90;97692.40;;;;111029;1248;41181;-62
2022/09/24 12:51:57;;;;;;;5.40;2.10;;;;;20.90;97689.80;;;;110983;1247;41251;-62
2022/09/24 12:54:27;;;;;;;6.00;2.30;;;;;21.26;97685.40;;;;111037;1249;41138;-62
2022/09/24 12:57:13;;;;;;;4.80;2.10;;;;;21.52;97681.60;;;;111193;1247;41175;-62